ETD67B OMAA-EDDM
Flight info
| Callsign | ETD67B |
|---|---|
| Flight time | N/A |
| Altitude | 36000 |
| Route | ATUDO M318 GOLGU M550 RIBOT/N0519F280 M550 MEVDO Y511 ITRUX/N0503F360 Y511 PMA Z712 WEJ L677 EMOVA/N0493F380 L677 CVO L617 NOZ L551 ANTAR DCT RIGRO DCT DISOR DCT LONTA UL608 DOLEV DCT IRDIV DCT PODET DCT EXHEK DCT REDBU Q112 NAPSA NAPSA4A |
| Aircraft | B78X/H-SDE1E2E3FGHIJ2J3J4J5M1RWXY/LB1D1 |
Departure
| Time | 2026-05-06 12:52 |
|---|---|
| Airport | Zayed International Airport (OMAA) |
Arrival
| Time | N/A |
|---|---|
| Airport | Munich Airport (EDDM) |
| Time | Latitude | Longitude | Altitude | Speed | Heading |
|---|---|---|---|---|---|
| 2026-05-06 12:16 | 24.44871 | 54.63945 | 58 ft | 0 kts | 327° |
| 2026-05-06 12:31 | 24.44864 | 54.63951 | 68 ft | 2 kts | 343° |
| 2026-05-06 12:32 | 24.44848 | 54.63958 | 58 ft | 2 kts | 360° |
| 2026-05-06 12:32 | 24.44831 | 54.63960 | 60 ft | 2 kts | 34° |
| 2026-05-06 12:32 | 24.44828 | 54.63954 | 58 ft | 0 kts | 352° |
| 2026-05-06 12:32 | 24.44815 | 54.63956 | 58 ft | 3 kts | 2° |
| 2026-05-06 12:33 | 24.44795 | 54.63954 | 58 ft | 3 kts | 38° |
| 2026-05-06 12:33 | 24.44784 | 54.63943 | 58 ft | 0 kts | 66° |
| 2026-05-06 12:39 | 24.44793 | 54.63965 | 58 ft | 6 kts | 64° |
| 2026-05-06 12:40 | 24.44805 | 54.64010 | 60 ft | 5 kts | 95° |
| 2026-05-06 12:40 | 24.44779 | 54.64065 | 60 ft | 11 kts | 119° |
| 2026-05-06 12:40 | 24.44743 | 54.64112 | 59 ft | 6 kts | 136° |
| 2026-05-06 12:40 | 24.44692 | 54.64142 | 60 ft | 10 kts | 159° |
| 2026-05-06 12:41 | 24.44606 | 54.64176 | 63 ft | 16 kts | 161° |
| 2026-05-06 12:41 | 24.44487 | 54.64228 | 58 ft | 19 kts | 156° |
| 2026-05-06 12:41 | 24.44374 | 54.64309 | 59 ft | 19 kts | 130° |
| 2026-05-06 12:41 | 24.44314 | 54.64391 | 58 ft | 10 kts | 129° |
| 2026-05-06 12:42 | 24.44258 | 54.64411 | 60 ft | 7 kts | 195° |
| 2026-05-06 12:42 | 24.44219 | 54.64380 | 58 ft | 7 kts | 218° |
| 2026-05-06 12:42 | 24.44179 | 54.64346 | 60 ft | 8 kts | 218° |
| 2026-05-06 12:42 | 24.44134 | 54.64311 | 60 ft | 7 kts | 211° |
| 2026-05-06 12:43 | 24.44112 | 54.64309 | 60 ft | 2 kts | 174° |
| 2026-05-06 12:43 | 24.44078 | 54.64335 | 62 ft | 7 kts | 134° |
| 2026-05-06 12:43 | 24.44045 | 54.64383 | 63 ft | 9 kts | 127° |
| 2026-05-06 12:43 | 24.43998 | 54.64450 | 59 ft | 13 kts | 127° |
| 2026-05-06 12:44 | 24.43937 | 54.64538 | 59 ft | 15 kts | 127° |
| 2026-05-06 12:44 | 24.43867 | 54.64634 | 59 ft | 19 kts | 131° |
| 2026-05-06 12:44 | 24.43775 | 54.64760 | 57 ft | 21 kts | 128° |
| 2026-05-06 12:44 | 24.43687 | 54.64888 | 61 ft | 21 kts | 127° |
| 2026-05-06 12:45 | 24.43597 | 54.65014 | 60 ft | 21 kts | 130° |
| 2026-05-06 12:45 | 24.43509 | 54.65139 | 56 ft | 21 kts | 128° |
| 2026-05-06 12:45 | 24.43335 | 54.65387 | 57 ft | 20 kts | 127° |
| 2026-05-06 12:46 | 24.43246 | 54.65511 | 55 ft | 21 kts | 129° |
| 2026-05-06 12:46 | 24.43156 | 54.65635 | 59 ft | 21 kts | 128° |
| 2026-05-06 12:46 | 24.43067 | 54.65761 | 57 ft | 21 kts | 128° |
| 2026-05-06 12:46 | 24.42979 | 54.65888 | 55 ft | 21 kts | 127° |
| 2026-05-06 12:47 | 24.42890 | 54.66014 | 55 ft | 21 kts | 128° |
| 2026-05-06 12:47 | 24.42800 | 54.66139 | 55 ft | 21 kts | 128° |
| 2026-05-06 12:47 | 24.42712 | 54.66261 | 53 ft | 20 kts | 128° |
| 2026-05-06 12:47 | 24.42625 | 54.66384 | 53 ft | 20 kts | 129° |
| 2026-05-06 12:48 | 24.42538 | 54.66506 | 55 ft | 20 kts | 127° |
| 2026-05-06 12:48 | 24.42450 | 54.66629 | 53 ft | 21 kts | 128° |
| 2026-05-06 12:48 | 24.42385 | 54.66711 | 54 ft | 8 kts | 149° |
| 2026-05-06 12:48 | 24.42358 | 54.66705 | 54 ft | 5 kts | 204° |
| 2026-05-06 12:49 | 24.42325 | 54.66682 | 55 ft | 6 kts | 214° |
| 2026-05-06 12:49 | 24.42288 | 54.66652 | 53 ft | 7 kts | 217° |
| 2026-05-06 12:49 | 24.42251 | 54.66613 | 53 ft | 6 kts | 237° |
| 2026-05-06 12:49 | 24.42253 | 54.66595 | 52 ft | 3 kts | 287° |
| 2026-05-06 12:50 | 24.42270 | 54.66569 | 53 ft | 0 kts | 307° |
| 2026-05-06 12:51 | 24.42304 | 54.66521 | 53 ft | 19 kts | 308° |
| 2026-05-06 12:51 | 24.42493 | 54.66256 | 55 ft | 77 kts | 307° |
| 2026-05-06 12:51 | 24.42971 | 54.65583 | 56 ft | 144 kts | 308° |
| 2026-05-06 12:51 | 24.43691 | 54.64555 | 236 ft | 186 kts | 313° |
| 2026-05-06 12:52 | 24.44492 | 54.63422 | 1085 ft | 192 kts | 308° |
| 2026-05-06 12:52 | 24.45342 | 54.62220 | 1860 ft | 207 kts | 308° |
| 2026-05-06 12:52 | 24.46276 | 54.60935 | 2412 ft | 224 kts | 308° |
| 2026-05-06 12:52 | 24.47277 | 54.59529 | 3039 ft | 240 kts | 307° |
| 2026-05-06 12:53 | 24.48314 | 54.58059 | 3871 ft | 246 kts | 307° |
| 2026-05-06 12:53 | 24.49374 | 54.56563 | 4732 ft | 250 kts | 307° |
| 2026-05-06 12:53 | 24.50451 | 54.55044 | 5572 ft | 256 kts | 307° |
| 2026-05-06 12:53 | 24.51249 | 54.54037 | 6132 ft | 261 kts | 318° |
| 2026-05-06 12:54 | 24.52911 | 54.53314 | 6936 ft | 263 kts | 359° |
| 2026-05-06 12:54 | 24.54679 | 54.53687 | 7803 ft | 260 kts | 27° |
| 2026-05-06 12:54 | 24.56060 | 54.54909 | 8679 ft | 255 kts | 55° |
| 2026-05-06 12:54 | 24.56758 | 54.56673 | 9554 ft | 254 kts | 78° |
| 2026-05-06 12:55 | 24.57074 | 54.58591 | 10341 ft | 256 kts | 81° |
| 2026-05-06 12:55 | 24.57369 | 54.60528 | 11121 ft | 258 kts | 79° |
| 2026-05-06 12:55 | 24.57710 | 54.62475 | 11865 ft | 262 kts | 78° |
| 2026-05-06 12:55 | 24.57985 | 54.64473 | 12486 ft | 272 kts | 91° |
| 2026-05-06 12:56 | 24.57336 | 54.66461 | 12942 ft | 290 kts | 124° |
| 2026-05-06 12:56 | 24.55772 | 54.67968 | 13320 ft | 312 kts | 152° |
| 2026-05-06 12:56 | 24.53624 | 54.68477 | 13867 ft | 324 kts | 182° |
| 2026-05-06 12:56 | 24.51421 | 54.67877 | 14472 ft | 330 kts | 200° |
| 2026-05-06 12:57 | 24.49302 | 54.66867 | 15083 ft | 334 kts | 204° |
| 2026-05-06 12:57 | 24.47186 | 54.65794 | 15747 ft | 342 kts | 202° |
| 2026-05-06 12:57 | 24.44940 | 54.64794 | 16254 ft | 356 kts | 200° |
| 2026-05-06 12:57 | 24.42560 | 54.63791 | 16637 ft | 373 kts | 200° |
| 2026-05-06 12:58 | 24.40087 | 54.62701 | 16934 ft | 392 kts | 201° |
| 2026-05-06 12:58 | 24.37505 | 54.61529 | 17222 ft | 409 kts | 201° |
| 2026-05-06 12:58 | 24.34836 | 54.60336 | 17710 ft | 419 kts | 201° |
| 2026-05-06 12:58 | 24.32111 | 54.59134 | 18267 ft | 425 kts | 200° |
| 2026-05-06 12:59 | 24.29352 | 54.57907 | 18806 ft | 430 kts | 203° |
| 2026-05-06 12:59 | 24.26754 | 54.56265 | 19370 ft | 434 kts | 214° |
| 2026-05-06 12:59 | 24.24425 | 54.54147 | 19937 ft | 438 kts | 227° |
| 2026-05-06 12:59 | 24.22626 | 54.51453 | 20523 ft | 440 kts | 240° |
| 2026-05-06 13:00 | 24.21127 | 54.48516 | 21098 ft | 443 kts | 242° |
| 2026-05-06 13:00 | 24.19641 | 54.45548 | 21668 ft | 446 kts | 242° |
| 2026-05-06 13:00 | 24.18121 | 54.42580 | 22242 ft | 448 kts | 241° |
| 2026-05-06 13:00 | 24.16595 | 54.39646 | 22773 ft | 450 kts | 241° |
| 2026-05-06 13:01 | 24.15048 | 54.36651 | 23305 ft | 453 kts | 242° |
| 2026-05-06 13:01 | 24.13505 | 54.33636 | 23740 ft | 455 kts | 242° |
| 2026-05-06 13:01 | 24.11950 | 54.30607 | 24168 ft | 458 kts | 241° |
| 2026-05-06 13:01 | 24.10380 | 54.27568 | 24601 ft | 460 kts | 241° |
| 2026-05-06 13:02 | 24.08803 | 54.24517 | 25014 ft | 461 kts | 241° |
| 2026-05-06 13:02 | 24.07224 | 54.21454 | 25467 ft | 463 kts | 241° |
| 2026-05-06 13:02 | 24.05639 | 54.18381 | 25892 ft | 464 kts | 241° |
| 2026-05-06 13:02 | 24.04047 | 54.15301 | 26321 ft | 466 kts | 241° |
| 2026-05-06 13:03 | 24.02450 | 54.12212 | 26749 ft | 467 kts | 241° |
| 2026-05-06 13:03 | 24.00846 | 54.09112 | 27174 ft | 469 kts | 241° |
| 2026-05-06 13:03 | 23.99235 | 54.05999 | 27594 ft | 471 kts | 241° |
| 2026-05-06 13:03 | 23.97603 | 54.02893 | 28014 ft | 472 kts | 240° |
| 2026-05-06 13:04 | 23.95943 | 53.99785 | 28430 ft | 474 kts | 240° |
| 2026-05-06 13:04 | 23.94285 | 53.96660 | 28833 ft | 476 kts | 241° |
| 2026-05-06 13:04 | 23.92633 | 53.93521 | 29239 ft | 478 kts | 241° |
| 2026-05-06 13:04 | 23.90970 | 53.90371 | 29646 ft | 479 kts | 240° |
| 2026-05-06 13:05 | 23.89294 | 53.87213 | 29994 ft | 481 kts | 240° |
| 2026-05-06 13:05 | 23.87612 | 53.84046 | 30308 ft | 483 kts | 241° |
| 2026-05-06 13:05 | 23.85946 | 53.80902 | 30630 ft | 484 kts | 241° |
| 2026-05-06 13:05 | 23.84234 | 53.77670 | 30930 ft | 486 kts | 241° |
| 2026-05-06 13:06 | 23.82558 | 53.74516 | 31237 ft | 487 kts | 241° |
| 2026-05-06 13:06 | 23.80852 | 53.71307 | 31533 ft | 489 kts | 241° |
| 2026-05-06 13:06 | 23.79144 | 53.68095 | 31911 ft | 488 kts | 241° |
| 2026-05-06 13:06 | 23.77439 | 53.64890 | 32395 ft | 486 kts | 241° |
| 2026-05-06 13:07 | 23.75747 | 53.61712 | 32861 ft | 483 kts | 241° |
| 2026-05-06 13:07 | 23.74061 | 53.58547 | 33328 ft | 481 kts | 242° |
| 2026-05-06 13:07 | 23.72384 | 53.55401 | 33773 ft | 479 kts | 242° |
| 2026-05-06 13:07 | 23.70709 | 53.52262 | 34170 ft | 477 kts | 242° |
| 2026-05-06 13:08 | 23.69045 | 53.49134 | 34525 ft | 476 kts | 242° |
| 2026-05-06 13:08 | 23.67393 | 53.46004 | 34850 ft | 476 kts | 242° |
| 2026-05-06 13:08 | 23.65741 | 53.42877 | 35182 ft | 476 kts | 242° |
| 2026-05-06 13:08 | 23.64084 | 53.39755 | 35504 ft | 475 kts | 241° |
| 2026-05-06 13:09 | 23.62425 | 53.36635 | 35738 ft | 476 kts | 241° |
| 2026-05-06 13:09 | 23.59147 | 53.30459 | 35734 ft | 471 kts | 241° |